Donostia-San Sebastian, Spain
Current Conditions -  °F | °C
As of 9:30 AM on Friday 24 Oct 2014 (Local Time) from LESO Reporting Station
Clear Clear  
Wind Chill: 52°   Ceiling: Unl
Heat Index: 52°   Visibility: 6mi
Dew Point: 43°   Wind: 3mph
Humidity: 71%   Direction: 200°SSW
Pressure: 30.09"   Gusts: NA
Location:  43.32°N, 1.98°W
Report Text: LESO 240730Z 20003KT 170V230 CAVOK 11/06 Q1019
Loading
Personal Weather Stations






























Interactive Weather Map
Tropical Storm Tracking
New forecast layout! Learn more

10-Day Weather Forecast

Advertisements
Track Severe Weather on mobile